KCLM/CLM METAR and TAF weather

Enter ICAO airport designator
Station Type Date Time Source
KCLM METAR 2018/07/21 03:53 UTC NOAA

KCLM 210353Z AUTO 29004KT 10SM CLR 13/09 A3017 RMK AO2 SLP216 T01330094


Station Type Date Time Source
KCLM Decoded METAR 2018/07/21 03:53 UTC NOAA

PORT ANGELES FAIRCHILD INTERNATIONAL , WA, United States (KCLM) 48-07N 123-30W 85M
Jul 20, 2018 - 11:53 PM EDT / 2018.07.21 0353 UTC
Wind: from the WNW (290 degrees) at 5 MPH (4 KT):0
Visibility: 10 mile(s):0
Sky conditions: clear
Temperature: 55.9 F (13.3 C)
Dew Point: 48.9 F (9.4 C)
Relative Humidity: 77%
Pressure (altimeter): 30.17 in. Hg (1021 hPa)
ob: KCLM 210353Z AUTO 29004KT 10SM CLR 13/09 A3017 RMK AO2 SLP216 T01330094
cycle: 4

Station Type Date Time Source
KCLM TAF 2018/07/20 18:42 UTC NOAA

TAF KCLM 201741Z 2018/2118 35008KT P6SM FEW035
FM210000 31010KT P6SM SKC
FM210300 28008KT P6SM SKC
FM211200 25005KT P6SM SCT022


Example: see airport list